Terminal Aerodrome Forecast
Issued by NWS Portland, OR

Home | Current Version | Previous Version | Text Only | Print | Product List | Glossary On
Versions: 1 2 3 4 5 6 7 8 9 10 11 12 13 14 15 16
000
FTUS46 KPQR 261139
TAFEUG
TAF
KEUG 261139Z 2612/2712 19008KT P6SM OVC050
     FM261600 19010KT 2SM -RA OVC019
     FM262000 20008KT 5SM -RA OVC025
     FM270000 20007KT P6SM -SHRA OVC040
     FM270400 17006KT P6SM VCSH BKN040=

USA.gov is the U.S. government's official web portal to all federal, state and local government web resources and services.